ウェーク島 の空港の天気 - METARとTAF

ウェーク島空軍基地 ( PWAK / AWK ) - 合衆国領有小離島 ウェーク島
飛行場実況気象(Metar)
観測時間11/13 04:50 WAKT (11/12 16:50 UTC)
風向・風速南 5m/s 瞬間風速9m/s
視程1200m
天気現象雨 もや
全天を覆う雲 鉛直視程 460m
気温26℃
湿度89%
気圧1016.5hPa
METARPWAK 121650Z AUTO 17010G17KT 1200 RA BR VV015 26/24 A3000 RMK AO2 VIS 1000V2200 RAB35 SLP165 RVRNO $
過去の天気等 Google飛行場航空写真 Wunderground天気予報

過去48時間のMETAR

飛行場予報(TAF)
データがありません